Terminal Aerodrome Forecast
Issued by NWS Wakefield, VA

Home | Current Version | Previous Version | Text Only | Print | Product List | Glossary On
Versions: 1 2 3 4 5 6 7 8 9 10 11 12 13 14
000
FTUS41 KAKQ 041139
TAFSBY
TAF
KSBY 041139Z 0412/0512 20008KT P6SM BKN250
     FM041500 23011G17KT P6SM SCT050 BKN250
     FM042100 22010KT P6SM VCSH BKN050
     FM050600 29005KT P6SM SCT060=

USA.gov is the U.S. government's official web portal to all federal, state and local government web resources and services.